createdAt,value
2023-05-14T00:03:00.230Z,100691.09
2023-05-14T00:08:03.788Z,100676.69
2023-05-14T00:13:09.551Z,100676.84
2023-05-14T00:18:14.182Z,100675.78
2023-05-14T00:23:17.977Z,100669.84
2023-05-14T00:28:21.929Z,100659.06
2023-05-14T00:33:26.689Z,100661.16
2023-05-14T00:38:30.716Z,100653.75
2023-05-14T00:43:35.042Z,100655.97
2023-05-14T00:48:39.846Z,100655.47
2023-05-14T00:53:43.129Z,100662.84
2023-05-14T00:58:47.138Z,100653.09
2023-05-14T01:03:53.528Z,100659.09
2023-05-14T01:09:26.152Z,100651.31
2023-05-14T01:14:38.981Z,100649.13
2023-05-14T01:19:45.730Z,100653.09
2023-05-14T01:24:50.934Z,100644.53
2023-05-14T01:30:00.979Z,100658.19
2023-05-14T01:35:05.390Z,100654.03
2023-05-14T01:40:13.197Z,100646.78
2023-05-14T01:45:16.900Z,100640.69
2023-05-14T01:50:22.012Z,100630.84
2023-05-14T01:55:27.064Z,100632.09
2023-05-14T02:00:34.063Z,100623.38
2023-05-14T02:05:37.372Z,100624.66
2023-05-14T02:10:45.920Z,100623.53
2023-05-14T02:15:52.008Z,100621.06
2023-05-14T02:20:55.607Z,100619.91
2023-05-14T02:26:00.226Z,100623.53
2023-05-14T02:31:03.656Z,100618.31
2023-05-14T02:36:07.323Z,100610.50
2023-05-14T02:41:11.864Z,100617.75
2023-05-14T02:46:15.202Z,100618.19
2023-05-14T02:51:18.850Z,100608.94
2023-05-14T02:56:23.671Z,100605.19
2023-05-14T03:01:26.930Z,100601.75
2023-05-14T03:06:31.341Z,100603.41
2023-05-14T03:11:36.033Z,100600.66
2023-05-14T03:16:40.163Z,100600.16
2023-05-14T03:21:43.496Z,100599.97
2023-05-14T03:26:48.136Z,100601.09
2023-05-14T03:31:51.587Z,100601.94
2023-05-14T03:36:54.882Z,100595.31
2023-05-14T03:41:59.820Z,100599.06
2023-05-14T03:47:02.986Z,100591.47
2023-05-14T03:52:06.302Z,100586.22
2023-05-14T03:57:11.026Z,100589.38
2023-05-14T04:02:14.251Z,100581.75
2023-05-14T04:07:17.519Z,100574.69
2023-05-14T04:12:22.461Z,100577.19
2023-05-14T04:17:25.798Z,100574.25
2023-05-14T04:22:28.979Z,100576.72
2023-05-14T04:27:34.904Z,100573.41
2023-05-14T04:32:38.282Z,100580.41
2023-05-14T04:37:41.950Z,100572.13
2023-05-14T04:42:46.747Z,100569.13
2023-05-14T04:47:50.128Z,100571.69
2023-05-14T04:52:55.904Z,100571.75
2023-05-14T04:58:00.591Z,100568.94
2023-05-14T05:03:04.194Z,100568.47
2023-05-14T05:08:07.573Z,100562.72
2023-05-14T05:13:12.176Z,100569.91
2023-05-14T05:18:15.596Z,100572.84
2023-05-14T05:23:18.803Z,100576.31
2023-05-14T05:28:23.543Z,100571.03
2023-05-14T05:33:27.067Z,100563.56
2023-05-14T05:38:30.394Z,100555.16
2023-05-14T05:43:34.944Z,100543.81
2023-05-14T05:48:38.138Z,100552.88
2023-05-14T05:53:41.373Z,100550.31
2023-05-14T05:58:45.987Z,100548.13
2023-05-14T06:03:49.328Z,100553.75
2023-05-14T06:08:52.736Z,100552.75
2023-05-14T06:13:57.468Z,100553.72
2023-05-14T06:19:00.647Z,100554.66
2023-05-14T06:24:04.115Z,100550.31
2023-05-14T06:29:08.791Z,100555.50
2023-05-14T06:34:17.283Z,100553.88
2023-05-14T06:39:20.486Z,100566.75
2023-05-14T06:44:27.156Z,100558.22
2023-05-14T06:49:30.497Z,100535.63
2023-05-14T06:54:33.676Z,100526.13
2023-05-14T06:59:38.379Z,100527.56
2023-05-14T07:04:42.167Z,100522.53
2023-05-14T07:09:49.007Z,100516.16
2023-05-14T07:14:53.747Z,100512.50
2023-05-14T07:19:56.960Z,100526.13
2023-05-14T07:25:00.248Z,100504.59
2023-05-14T07:30:05.191Z,100492.44
2023-05-14T07:35:09.441Z,100494.69
2023-05-14T07:40:13.112Z,100492.22
2023-05-14T07:45:17.865Z,100494.13
2023-05-14T07:50:21.257Z,100480.31
2023-05-14T07:55:24.788Z,100474.63
2023-05-14T08:00:32.074Z,100476.34
2023-05-14T08:05:35.379Z,100477.22
2023-05-14T08:10:38.837Z,100468.19
2023-05-14T08:15:43.501Z,100467.19
2023-05-14T08:20:47.229Z,100461.41
2023-05-14T08:25:50.398Z,100458.66
2023-05-14T08:30:54.999Z,100452.47
2023-05-14T08:36:00.599Z,100453.13
2023-05-14T08:41:06.692Z,100443.00
2023-05-14T08:46:15.232Z,100437.66
2023-05-14T08:51:18.452Z,100433.06
2023-05-14T08:56:22.042Z,100434.72
2023-05-14T09:01:27.255Z,100422.63
2023-05-14T09:06:33.092Z,100422.22
2023-05-14T09:11:41.615Z,100425.13
2023-05-14T09:16:48.295Z,100408.69
2023-05-14T09:21:51.749Z,100413.00
2023-05-14T09:26:57.385Z,100414.03
2023-05-14T09:32:05.718Z,100416.25
2023-05-14T09:37:10.585Z,100424.22
2023-05-14T09:42:13.784Z,100408.00
2023-05-14T09:47:19.025Z,100400.25
2023-05-14T09:52:22.281Z,100393.91
2023-05-14T09:57:26.885Z,100382.66
2023-05-14T10:02:38.274Z,100380.97
2023-05-14T10:07:47.682Z,100370.31
2023-05-14T10:12:54.580Z,100362.69
2023-05-14T10:18:04.776Z,100369.69
2023-05-14T10:23:08.231Z,100371.56
2023-05-14T10:28:11.917Z,100348.13
2023-05-14T10:33:18.536Z,100361.69
2023-05-14T10:38:24.499Z,100342.41
2023-05-14T10:43:30.994Z,100340.13
2023-05-14T10:48:38.016Z,100332.75
2023-05-14T10:53:43.352Z,100332.13
2023-05-14T10:58:47.404Z,100332.34
2023-05-14T11:03:56.112Z,100329.84
2023-05-14T11:09:02.008Z,100316.75
2023-05-14T11:14:05.321Z,100317.97
2023-05-14T11:19:10.193Z,100303.19
2023-05-14T11:24:14.691Z,100311.59
2023-05-14T11:29:19.177Z,100297.63
2023-05-14T11:34:24.064Z,100302.31
2023-05-14T11:39:27.305Z,100309.53
2023-05-14T11:44:30.422Z,100298.28
2023-05-14T11:49:37.521Z,100300.53
2023-05-14T11:54:40.814Z,100298.28
2023-05-14T11:59:45.036Z,100302.78
2023-05-14T12:04:53.294Z,100299.03
2023-05-14T12:10:01.974Z,100305.31
2023-05-14T12:15:12.812Z,100296.31
2023-05-14T12:20:18.524Z,100292.56
2023-05-14T12:25:21.791Z,100293.75
2023-05-14T12:30:25.270Z,100279.66
2023-05-14T12:35:30.609Z,100285.31
2023-05-14T12:40:33.873Z,100274.44
2023-05-14T12:45:36.983Z,100274.63
2023-05-14T12:50:41.840Z,100269.56
2023-05-14T12:55:45.183Z,100266.38
2023-05-14T13:00:48.654Z,100273.47
2023-05-14T13:05:55.151Z,100263.47
2023-05-14T13:10:58.809Z,100260.78
2023-05-14T13:16:02.181Z,100269.84
2023-05-14T13:21:06.930Z,100266.59
2023-05-14T13:26:10.131Z,100258.22
2023-05-14T13:31:15.907Z,100250.53
2023-05-14T13:36:21.146Z,100257.31
2023-05-14T13:41:24.484Z,100248.94
2023-05-14T13:46:27.720Z,100240.03
2023-05-14T13:51:32.544Z,100231.53
2023-05-14T13:56:35.905Z,100239.13
2023-05-14T14:01:39.192Z,100226.44
2023-05-14T14:06:46.711Z,100226.13
2023-05-14T14:11:50.143Z,100220.91
2023-05-14T14:16:53.415Z,100204.97
2023-05-14T14:21:58.176Z,100210.53
2023-05-14T14:27:02.479Z,100202.19
2023-05-14T14:32:08.067Z,100185.50
2023-05-14T14:37:12.933Z,100176.09
2023-05-14T14:42:16.150Z,100170.59
2023-05-14T14:47:19.432Z,100162.41
2023-05-14T14:52:24.641Z,100152.19
2023-05-14T14:57:30.140Z,100157.56
2023-05-14T15:02:33.640Z,100155.03
2023-05-14T15:07:40.683Z,100153.13
2023-05-14T15:12:44.578Z,100150.50
2023-05-14T15:17:47.993Z,100148.03
2023-05-14T15:22:53.970Z,100143.13
2023-05-14T15:27:57.179Z,100134.53
2023-05-14T15:33:03.127Z,100132.91
2023-05-14T15:38:08.366Z,100123.66
2023-05-14T15:43:14.205Z,100125.31
2023-05-14T15:48:17.738Z,100112.19
2023-05-14T15:53:28.116Z,100110.34
2023-05-14T15:58:34.049Z,100101.50
2023-05-14T16:03:37.552Z,100111.72
2023-05-14T16:08:46.402Z,100095.88
2023-05-14T16:13:49.934Z,100095.28
2023-05-14T16:18:53.083Z,100096.94
2023-05-14T16:23:57.772Z,100096.72
2023-05-14T16:29:00.987Z,100085.88
2023-05-14T16:34:05.974Z,100091.13
2023-05-14T16:39:11.598Z,100097.19
2023-05-14T16:44:14.838Z,100090.66
2023-05-14T16:49:22.355Z,100083.69
2023-05-14T16:54:29.957Z,100086.75
2023-05-14T16:59:36.436Z,100087.28
2023-05-14T17:04:42.331Z,100082.59
2023-05-14T17:09:47.148Z,100088.50
2023-05-14T17:14:50.481Z,100090.69
2023-05-14T17:19:53.996Z,100093.28
2023-05-14T17:24:58.724Z,100097.34
2023-05-14T17:30:02.290Z,100089.94
2023-05-14T17:35:06.633Z,100099.13
2023-05-14T17:40:12.530Z,100100.84
2023-05-14T17:45:20.789Z,100109.66
2023-05-14T17:50:24.327Z,100113.56
2023-05-14T17:55:29.070Z,100118.13
2023-05-14T18:00:32.546Z,100110.00
2023-05-14T18:05:36.165Z,100117.25
2023-05-14T18:10:40.849Z,100115.53
2023-05-14T18:15:44.435Z,100115.47
2023-05-14T18:20:47.859Z,100118.22
2023-05-14T18:25:52.630Z,100121.78
2023-05-14T18:30:56.160Z,100118.41
2023-05-14T18:35:59.810Z,100117.78
2023-05-14T18:41:04.565Z,100115.50
2023-05-14T18:46:07.968Z,100117.50
2023-05-14T18:51:12.480Z,100122.06
2023-05-14T18:56:17.175Z,100119.00
2023-05-14T19:01:21.280Z,100122.34
2023-05-14T19:06:24.913Z,100119.63
2023-05-14T19:11:45.175Z,100128.94
2023-05-14T19:16:49.392Z,100130.03
2023-05-14T19:21:55.004Z,100125.66
2023-05-14T19:27:02.663Z,100119.88
2023-05-14T19:32:06.933Z,100115.31
2023-05-14T19:37:10.234Z,100119.50
2023-05-14T19:42:14.843Z,100111.44
2023-05-14T19:47:18.226Z,100114.81
2023-05-14T19:52:21.642Z,100099.63
2023-05-14T19:57:26.637Z,100098.72
2023-05-14T20:02:30.213Z,100091.31
2023-05-14T20:07:34.107Z,100091.19
2023-05-14T20:12:38.945Z,100087.63
2023-05-14T20:17:44.943Z,100084.06
2023-05-14T20:22:48.244Z,100075.38
2023-05-14T20:27:53.481Z,100077.44
2023-05-14T20:32:57.517Z,100077.03
2023-05-14T20:38:03.605Z,100076.63
2023-05-14T20:43:08.275Z,100070.88
2023-05-14T20:48:15.133Z,100068.47
2023-05-14T20:53:18.385Z,100067.69
2023-05-14T20:58:22.992Z,100068.75
2023-05-14T21:03:28.116Z,100048.81
2023-05-14T21:08:33.078Z,100047.22
2023-05-14T21:13:38.298Z,100039.34
2023-05-14T21:18:41.669Z,100034.09
2023-05-14T21:23:45.046Z,100039.56
2023-05-14T21:28:49.973Z,100040.25
2023-05-14T21:33:53.566Z,100039.28
2023-05-14T21:38:56.781Z,100040.63
2023-05-14T21:44:01.397Z,100047.88
2023-05-14T21:49:05.052Z,100047.72
2023-05-14T21:54:09.069Z,100049.53
2023-05-14T21:59:13.770Z,100051.22
2023-05-14T22:04:17.802Z,100047.59
2023-05-14T22:09:21.210Z,100048.28
2023-05-14T22:14:27.453Z,100049.94
2023-05-14T22:19:31.346Z,100047.31
2023-05-14T22:24:34.935Z,100049.28
2023-05-14T22:29:39.524Z,100047.00
2023-05-14T22:34:42.696Z,100046.50
2023-05-14T22:39:46.084Z,100035.44
2023-05-14T22:44:50.746Z,100031.50
2023-05-14T22:49:54.096Z,100032.53
2023-05-14T22:54:57.298Z,100023.13
2023-05-14T23:00:01.914Z,100022.44
2023-05-14T23:05:05.833Z,100031.69
2023-05-14T23:10:09.697Z,100026.25
2023-05-14T23:15:14.468Z,100009.13
2023-05-14T23:20:20.442Z,99989.03
2023-05-14T23:25:23.814Z,99991.31
2023-05-14T23:30:28.536Z,99984.06
2023-05-14T23:35:35.300Z,99968.25
2023-05-14T23:40:38.847Z,99955.09
2023-05-14T23:45:43.671Z,99958.53
2023-05-14T23:50:46.827Z,99949.81
2023-05-14T23:55:50.562Z,99954.09
